Time;durP1;ratioP1;P1;durP2;ratioP2;P2;SDS_P1;SDS_P2;PMS_P1;PMS_P2;Temp;Humidity;BMP_temperature;BMP_pressure;BME280_temperature;BME280_humidity;BME280_pressure;Samples;Min_cycle;Max_cycle;Signal;HPM_P1;HPM_P2
2022/10/23 00:00:26;;;;;;;;;4.00;4.00;;;;;18.32;66.08;100293.03;5085660;27;45488;-60
2022/10/23 00:02:52;;;;;;;;;6.00;6.00;;;;;18.29;66.29;100295.91;5097424;27;45681;-59
2022/10/23 00:05:19;;;;;;;;;4.00;4.00;;;;;18.29;65.96;100289.72;5098862;27;46154;-60
2022/10/23 00:07:49;;;;;;;;;4.67;4.33;;;;;18.29;66.24;100274.59;5098091;27;45485;-60
2022/10/23 00:10:14;;;;;;;;;6.33;5.00;;;;;18.27;66.46;100271.22;5097523;27;45414;-59
2022/10/23 00:12:39;;;;;;;;;6.00;5.00;;;;;18.25;66.43;100277.63;5097858;27;45571;-59
2022/10/23 00:15:05;;;;;;;;;5.00;5.00;;;;;18.21;66.83;100266.31;5098704;27;45475;-60
2022/10/23 00:17:31;;;;;;;;;6.00;6.00;;;;;18.21;66.57;100268.97;5094951;27;45417;-60
2022/10/23 00:19:57;;;;;;;;;5.00;5.00;;;;;18.17;66.71;100270.19;5096855;27;45463;-60
2022/10/23 00:22:22;;;;;;;;;4.50;4.50;;;;;18.14;66.84;100267.75;5098733;27;45640;-59
2022/10/23 00:24:47;;;;;;;;;6.00;5.00;;;;;18.17;66.70;100264.84;5097917;27;45924;-59
2022/10/23 00:27:13;;;;;;;;;6.00;6.00;;;;;18.19;66.65;100262.06;5098571;27;45363;-60
2022/10/23 00:29:38;;;;;;;;;6.67;5.00;;;;;18.18;67.12;100249.72;5098474;27;45368;-60
2022/10/23 00:32:03;;;;;;;;;4.33;4.33;;;;;18.14;66.73;100257.09;5097427;27;45668;-60
2022/10/23 00:34:29;;;;;;;;;6.33;5.00;;;;;18.12;66.90;100256.34;5090910;27;52984;-59
2022/10/23 00:36:54;;;;;;;;;6.67;6.67;;;;;18.11;67.04;100246.69;5098046;27;45360;-60
2022/10/23 00:39:19;;;;;;;;;6.33;6.33;;;;;18.08;66.85;100255.75;5097750;27;48014;-59
2022/10/23 00:41:45;;;;;;;;;4.00;3.67;;;;;18.08;66.83;100244.22;5085390;27;45471;-60
2022/10/23 00:44:30;;;;;;;;;4.00;4.00;;;;;18.10;66.92;100239.63;5098004;27;45311;-60
2022/10/23 00:46:57;;;;;;;;;4.00;3.00;;;;;18.13;66.93;100238.56;5097636;27;45311;-60
2022/10/23 00:49:24;;;;;;;;;4.00;4.00;;;;;18.15;66.73;100232.16;5098232;27;45496;-59
2022/10/23 00:51:53;;;;;;;;;5.33;5.33;;;;;18.18;66.49;100233.75;5097159;27;45446;-60
2022/10/23 00:54:21;;;;;;;;;5.00;5.00;;;;;18.17;66.86;100222.28;5090445;27;45596;-59
2022/10/23 00:56:47;;;;;;;;;5.67;5.67;;;;;18.19;66.59;100224.81;5097971;27;45402;-60
2022/10/23 00:59:13;;;;;;;;;4.67;4.67;;;;;18.18;66.42;100215.13;5095379;27;45381;-59
2022/10/23 01:01:39;;;;;;;;;4.33;4.00;;;;;18.19;66.56;100207.03;5095387;27;45646;-60
2022/10/23 01:04:06;;;;;;;;;4.00;4.00;;;;;18.17;66.82;100195.66;5097380;27;46200;-60
2022/10/23 01:06:39;;;;;;;;;4.33;4.33;;;;;18.18;66.67;100192.03;5098116;27;45370;-59
2022/10/23 01:09:18;;;;;;;;;4.50;4.50;;;;;18.20;66.42;100184.78;5095489;27;45515;-59
2022/10/23 01:12:25;;;;;;;;;6.33;3.67;;;;;18.19;66.65;100193.75;5078890;27;45564;-58
2022/10/23 01:14:53;;;;;;;;;4.00;4.00;;;;;18.20;66.69;100194.59;5091137;27;45519;-59
2022/10/23 01:17:30;;;;;;;;;3.00;3.00;;;;;18.18;66.57;100186.69;5097705;27;45452;-59
2022/10/23 01:20:11;;;;;;;;;6.33;5.00;;;;;18.16;66.82;100180.66;5097580;27;45440;-60
2022/10/23 01:23:10;;;;;;;;;3.75;3.75;;;;;18.13;66.38;100178.19;5086464;27;45366;-60
2022/10/23 01:25:44;;;;;;;;;3.00;3.00;;;;;18.12;66.68;100168.53;5085982;27;45530;-59
2022/10/23 01:28:15;;;;;;;;;4.33;4.00;;;;;18.07;66.27;100162.69;5097236;27;45433;-60
2022/10/23 01:30:43;;;;;;;;;3.00;3.00;;;;;18.09;66.24;100155.44;5096550;27;45547;-60
2022/10/23 01:33:14;;;;;;;;;3.75;2.75;;;;;18.05;66.48;100138.00;5096057;27;45595;-60
2022/10/23 01:35:49;;;;;;;;;3.00;3.00;;;;;18.12;66.08;100143.72;5095737;27;47372;-59
2022/10/23 01:38:23;;;;;;;;;4.00;4.00;;;;;18.10;65.99;100150.00;5096760;27;45508;-60
2022/10/23 01:40:54;;;;;;;;;2.00;2.00;;;;;18.10;66.05;100159.78;5096352;27;45357;-60
2022/10/23 01:43:26;;;;;;;;;5.00;2.75;;;;;18.13;65.98;100159.56;5093234;27;45369;-59
2022/10/23 01:46:06;;;;;;;;;3.00;3.00;;;;;18.14;65.89;100155.97;5095941;27;46345;-60
2022/10/23 01:48:34;;;;;;;;;2.25;2.25;;;;;18.12;66.13;100139.25;5097080;27;45395;-60
2022/10/23 01:51:04;;;;;;;;;2.25;1.25;;;;;18.12;66.15;100147.22;5097206;27;45423;-60
2022/10/23 01:53:34;;;;;;;;;1.00;1.00;;;;;18.10;66.16;100159.78;5097271;27;45401;-60
2022/10/23 01:56:04;;;;;;;;;4.00;2.50;;;;;18.07;66.36;100149.38;5092704;27;45619;-59
2022/10/23 01:58:34;;;;;;;;;2.50;2.50;;;;;18.06;65.87;100131.72;5090869;27;45464;-60
2022/10/23 02:01:04;;;;;;;;;3.50;3.50;;;;;18.06;66.42;100137.06;5082612;27;45426;-60
2022/10/23 02:03:34;;;;;;;;;3.00;2.75;;;;;18.06;66.23;100142.38;5097228;27;45450;-59
2022/10/23 02:05:59;;;;;;;;;3.00;3.00;;;;;18.04;66.23;100131.84;5097011;27;46282;-59
2022/10/23 02:08:25;;;;;;;;;3.00;3.00;;;;;18.03;66.19;100122.16;5096904;27;45347;-59
2022/10/23 02:11:07;;;;;;;;;2.75;2.75;;;;;18.02;66.03;100114.28;5091797;27;45320;-59
2022/10/23 02:13:38;;;;;;;;;2.75;2.75;;;;;18.01;66.35;100105.44;5096773;27;45530;-60
2022/10/23 02:16:15;;;;;;;;;3.25;3.25;;;;;18.00;66.38;100113.53;5096616;27;45679;-60
2022/10/23 02:18:59;;;;;;;;;3.00;3.00;;;;;18.01;66.28;100112.59;5095400;27;45488;-60
2022/10/23 02:21:40;;;;;;;;;2.67;2.67;;;;;18.02;66.24;100114.28;5096874;27;45488;-60
2022/10/23 02:24:10;;;;;;;;;5.67;3.00;;;;;18.03;66.11;100113.34;5096691;27;45535;-60
2022/10/23 02:26:41;;;;;;;;;3.67;3.00;;;;;18.02;66.39;100106.28;5096722;27;45539;-60
2022/10/23 02:29:23;;;;;;;;;2.75;2.00;;;;;18.01;66.39;100094.81;5096822;27;45396;-60
2022/10/23 02:31:48;;;;;;;;;2.00;2.00;;;;;18.03;66.43;100084.91;5087624;27;45579;-60
2022/10/23 02:34:13;;;;;;;;;3.00;3.00;;;;;18.03;66.25;100084.06;5094643;27;45606;-60
2022/10/23 02:36:40;;;;;;;;;2.25;2.25;;;;;18.02;66.42;100085.00;5093528;27;46023;-60
2022/10/23 02:39:05;;;;;;;;;3.00;3.00;;;;;18.03;66.24;100084.06;5088426;27;45396;-59
2022/10/23 02:41:36;;;;;;;;;2.67;2.67;;;;;18.04;66.48;100083.09;5095084;27;45401;-60
2022/10/23 02:44:09;;;;;;;;;2.00;2.00;;;;;18.04;66.25;100070.63;5096654;27;45499;-60
2022/10/23 02:47:18;;;;;;;;;2.00;2.00;;;;;18.02;66.53;100066.38;5089832;27;46409;-60
2022/10/23 02:49:58;;;;;;;;;3.00;3.00;;;;;17.99;66.44;100070.13;5074898;27;45437;-60
2022/10/23 02:52:40;;;;;;;;;3.00;3.00;;;;;18.00;67.18;100065.63;5096489;27;45526;-60
2022/10/23 02:55:39;;;;;;;;;4.33;4.33;;;;;17.98;67.00;100063.09;5095050;27;45413;-60
2022/10/23 02:58:26;;;;;;;;;4.00;4.00;;;;;18.01;66.68;100062.03;5096241;27;46572;-60
2022/10/23 03:00:58;;;;;;;;;4.00;3.00;;;;;18.02;66.92;100053.91;5096216;27;45520;-60
2022/10/23 03:03:31;;;;;;;;;1.67;1.67;;;;;17.99;67.11;100054.16;5096165;27;45301;-60
2022/10/23 03:05:57;;;;;;;;;3.33;2.00;;;;;17.98;67.00;100049.81;5084756;27;45479;-60
2022/10/23 03:08:23;;;;;;;;;3.75;3.00;;;;;17.97;67.04;100042.75;5091831;27;46131;-59
2022/10/23 03:10:50;;;;;;;;;4.33;3.00;;;;;17.97;67.00;100041.91;5097397;27;45429;-59
2022/10/23 03:13:15;;;;;;;;;3.00;2.00;;;;;17.96;67.19;100037.56;5099206;27;45471;-59
2022/10/23 03:15:41;;;;;;;;;4.00;3.67;;;;;17.94;67.41;100037.69;5099849;27;45447;-59
2022/10/23 03:18:06;;;;;;;;;3.33;3.33;;;;;17.93;67.41;100032.50;5099499;27;46045;-59
2022/10/23 03:20:31;;;;;;;;;3.00;3.00;;;;;17.91;67.33;100029.09;5099456;27;46522;-59
2022/10/23 03:22:56;;;;;;;;;4.00;3.00;;;;;17.90;67.86;100028.25;5096829;27;45467;-59
2022/10/23 03:25:22;;;;;;;;;4.50;3.00;;;;;17.86;67.92;100021.44;5099434;27;45525;-60
2022/10/23 03:27:47;;;;;;;;;4.00;2.00;;;;;17.82;67.72;100010.19;5099463;27;45480;-59
2022/10/23 03:30:12;;;;;;;;;2.00;2.00;;;;;17.82;67.95;99999.56;5099152;27;49605;-60
2022/10/23 03:32:38;;;;;;;;;5.33;4.00;;;;;17.79;67.88;100002.44;5099396;27;45537;-60
2022/10/23 03:35:03;;;;;;;;;3.67;3.00;;;;;17.75;68.08;99997.44;5099640;27;45478;-59
2022/10/23 03:37:29;;;;;;;;;5.00;4.67;;;;;17.76;68.38;100007.09;5099200;27;46202;-60
2022/10/23 03:39:54;;;;;;;;;3.00;3.00;;;;;17.76;68.14;100015.06;5089352;27;45390;-60
2022/10/23 03:42:19;;;;;;;;;3.00;3.00;;;;;17.73;68.34;100004.66;5094883;27;45340;-60
2022/10/23 03:44:45;;;;;;;;;3.00;3.00;;;;;17.74;68.48;100012.56;5098028;27;45669;-60
2022/10/23 03:47:11;;;;;;;;;4.00;4.00;;;;;17.73;68.20;100020.63;5092524;27;45439;-60
2022/10/23 03:49:38;;;;;;;;;4.00;4.00;;;;;17.71;68.45;100014.59;5098779;27;45391;-59
2022/10/23 03:52:05;;;;;;;;;5.00;5.00;;;;;17.71;68.69;99998.66;5099216;27;45436;-59
2022/10/23 03:54:31;;;;;;;;;6.00;3.33;;;;;17.69;68.65;100000.56;5099065;27;45519;-59
2022/10/23 03:56:56;;;;;;;;;5.67;5.67;;;;;17.72;68.83;100000.31;5099051;27;45444;-60
2022/10/23 03:59:22;;;;;;;;;3.00;3.00;;;;;17.70;68.80;100002.25;5099202;27;45467;-59
2022/10/23 04:01:47;;;;;;;;;3.00;3.00;;;;;17.72;68.78;100009.16;5093014;27;45501;-60
2022/10/23 04:04:13;;;;;;;;;4.00;4.00;;;;;17.74;68.75;100019.69;5090950;27;45489;-60
2022/10/23 04:06:39;;;;;;;;;5.00;4.00;;;;;17.76;68.61;100023.06;5095387;27;45454;-60
2022/10/23 04:09:05;;;;;;;;;2.00;2.00;;;;;17.76;68.55;100020.41;5099104;27;45483;-60
2022/10/23 04:11:31;;;;;;;;;5.00;3.00;;;;;17.74;68.69;100012.56;5094269;27;45395;-59
2022/10/23 04:13:56;;;;;;;;;4.00;3.75;;;;;17.74;68.80;100015.22;5098392;27;45383;-59
2022/10/23 04:16:23;;;;;;;;;4.33;4.33;;;;;17.72;68.55;100008.31;5095791;27;46142;-59
2022/10/23 04:18:48;;;;;;;;;3.33;3.33;;;;;17.70;68.97;99997.78;5098696;27;45364;-59
2022/10/23 04:21:13;;;;;;;;;3.33;3.33;;;;;17.73;68.77;100007.34;5095080;27;45296;-60
2022/10/23 04:23:39;;;;;;;;;3.67;3.67;;;;;17.72;69.02;100017.13;5098902;27;45518;-60
2022/10/23 04:26:04;;;;;;;;;4.00;3.25;;;;;17.76;68.98;100020.41;5096999;27;47318;-60
2022/10/23 04:28:30;;;;;;;;;4.33;4.33;;;;;17.78;68.53;100018.47;5098489;27;45609;-60
2022/10/23 04:30:55;;;;;;;;;5.67;5.67;;;;;17.76;68.67;100010.63;5097609;27;51440;-60
2022/10/23 04:33:20;;;;;;;;;4.00;4.00;;;;;17.75;68.93;100011.56;5098937;27;45429;-60
2022/10/23 04:35:46;;;;;;;;;4.00;4.00;;;;;17.76;69.01;100007.09;5097794;27;45920;-59
2022/10/23 04:38:11;;;;;;;;;5.00;5.00;;;;;17.76;69.07;100000.00;5091372;27;45714;-60
2022/10/23 04:40:37;;;;;;;;;4.00;4.00;;;;;17.76;69.29;99981.38;5083489;27;45420;-60
2022/10/23 04:43:02;;;;;;;;;4.00;4.00;;;;;17.76;68.98;99972.53;5098470;27;45422;-59
2022/10/23 04:45:27;;;;;;;;;5.33;4.33;;;;;17.75;69.14;99973.50;5098166;27;45440;-60
2022/10/23 04:47:53;;;;;;;;;6.00;6.00;;;;;17.73;69.24;99981.63;5096842;27;45410;-60
2022/10/23 04:50:19;;;;;;;;;4.00;3.00;;;;;17.74;69.45;100006.38;5098264;27;45529;-59
2022/10/23 04:52:45;;;;;;;;;4.00;4.00;;;;;17.73;69.62;100021.50;5096670;27;45448;-59
2022/10/23 04:55:10;;;;;;;;;3.67;3.67;;;;;17.74;69.31;100027.66;5087517;27;45367;-59
2022/10/23 04:57:35;;;;;;;;;4.33;4.33;;;;;17.77;68.95;100033.59;5098052;27;45496;-59
2022/10/23 05:00:01;;;;;;;;;3.00;3.00;;;;;17.78;69.14;100023.81;5098063;27;45497;-59
2022/10/23 05:02:26;;;;;;;;;4.67;4.67;;;;;17.72;69.49;100019.78;5095253;27;45479;-59
2022/10/23 05:04:52;;;;;;;;;5.00;5.00;;;;;17.69;69.87;100012.03;5094782;27;46013;-60
2022/10/23 05:07:17;;;;;;;;;5.00;5.00;;;;;17.68;70.19;99997.06;5097632;27;45505;-59
2022/10/23 05:09:43;;;;;;;;;6.00;5.00;;;;;17.69;70.26;99998.75;5097985;27;45428;-60
2022/10/23 05:12:08;;;;;;;;;5.00;5.00;;;;;17.67;70.30;99974.91;5098141;27;45428;-60
2022/10/23 05:14:33;;;;;;;;;6.33;4.33;;;;;17.67;70.42;99971.41;5097185;27;45374;-59
2022/10/23 05:17:11;;;;;;;;;4.67;4.00;;;;;17.65;70.14;99968.88;5095782;27;45398;-60
2022/10/23 05:19:44;;;;;;;;;3.33;2.33;;;;;17.65;70.11;99960.91;5096985;27;45498;-60
2022/10/23 05:22:11;;;;;;;;;5.00;5.00;;;;;17.62;70.34;99977.09;5097692;27;45512;-59
2022/10/23 05:24:36;;;;;;;;;5.00;5.00;;;;;17.60;70.79;99952.41;5096987;27;46010;-59
2022/10/23 05:27:01;;;;;;;;;4.33;4.00;;;;;17.63;70.56;99944.22;5091375;27;45443;-59
2022/10/23 05:29:27;;;;;;;;;6.67;6.67;;;;;17.62;70.38;99929.22;5088554;27;45440;-60
2022/10/23 05:31:57;;;;;;;;;5.00;5.00;;;;;17.65;70.71;99926.34;5097693;27;45350;-60
2022/10/23 05:34:26;;;;;;;;;6.00;4.67;;;;;17.64;70.89;99915.81;5090991;27;45487;-59
2022/10/23 05:36:51;;;;;;;;;5.00;5.00;;;;;17.65;71.28;99912.16;5087799;27;45496;-59
2022/10/23 05:39:17;;;;;;;;;9.33;8.00;;;;;17.65;70.92;99923.69;5092007;27;45508;-59
2022/10/23 05:41:43;;;;;;;;;7.67;6.33;;;;;17.69;71.01;99928.75;5086257;27;45576;-59
2022/10/23 05:44:08;;;;;;;;;8.33;8.33;;;;;17.70;70.78;99930.44;5096550;27;46513;-59
2022/10/23 05:46:34;;;;;;;;;7.33;7.00;;;;;17.70;70.77;99914.47;5097476;27;45413;-60
2022/10/23 05:48:59;;;;;;;;;8.33;7.00;;;;;17.71;70.99;99908.22;5097258;27;45340;-60
2022/10/23 05:51:24;;;;;;;;;8.33;7.33;;;;;17.71;70.80;99914.38;5095773;27;45383;-60
2022/10/23 05:53:51;;;;;;;;;5.00;5.00;;;;;17.73;71.00;99917.78;5096686;27;45413;-59
2022/10/23 05:56:17;;;;;;;;;6.33;6.33;;;;;17.75;70.78;99920.31;5081701;27;45502;-60
2022/10/23 05:58:43;;;;;;;;;7.67;6.67;;;;;17.76;70.73;99922.84;5097150;27;45438;-59
2022/10/23 06:01:12;;;;;;;;;4.00;4.00;;;;;17.74;70.94;99923.94;5096604;27;45573;-59
2022/10/23 06:03:38;;;;;;;;;6.00;6.00;;;;;17.72;70.68;99939.16;5096490;27;46031;-59
2022/10/23 06:06:05;;;;;;;;;3.33;3.00;;;;;17.69;71.07;99939.41;5094258;27;45453;-59
2022/10/23 06:08:31;;;;;;;;;6.33;4.67;;;;;17.66;71.01;99927.19;5096892;27;45499;-59
2022/10/23 06:10:57;;;;;;;;;6.00;6.00;;;;;17.64;71.10;99923.78;5096553;27;45428;-59
2022/10/23 06:13:22;;;;;;;;;4.33;4.33;;;;;17.61;71.18;99921.34;5096871;27;45505;-60
2022/10/23 06:15:47;;;;;;;;;5.00;5.00;;;;;17.62;71.07;99923.03;5096880;27;45501;-59
2022/10/23 06:18:13;;;;;;;;;6.00;5.67;;;;;17.60;71.02;99914.34;5096503;27;45388;-59
2022/10/23 06:20:39;;;;;;;;;11.67;10.67;;;;;17.60;71.21;99923.16;5096860;27;45581;-60
2022/10/23 06:23:05;;;;;;;;;10.33;8.33;;;;;17.58;71.17;99919.78;5101459;27;46103;-59
2022/10/23 06:25:31;;;;;;;;;5.67;5.67;;;;;17.58;71.15;99922.44;5096646;27;45500;-60
2022/10/23 06:27:56;;;;;;;;;6.00;6.00;;;;;17.55;71.33;99912.03;5096822;27;45439;-60
2022/10/23 06:30:22;;;;;;;;;10.67;7.67;;;;;17.54;71.33;99904.16;5096705;27;45625;-59
2022/10/23 06:32:47;;;;;;;;;8.33;6.00;;;;;17.52;71.37;99900.78;5097343;27;46296;-59
2022/10/23 06:35:13;;;;;;;;;8.67;7.00;;;;;17.49;71.63;99911.63;5088699;27;51525;-60
2022/10/23 06:37:38;;;;;;;;;9.67;8.33;;;;;17.47;71.43;99894.97;5096158;27;45439;-58
2022/10/23 06:40:05;;;;;;;;;7.67;7.67;;;;;17.44;71.49;99890.72;5085045;27;45541;-58
2022/10/23 06:42:30;;;;;;;;;8.67;7.00;;;;;17.40;71.56;99891.91;5082188;27;45522;-58
2022/10/23 06:44:56;;;;;;;;;6.67;5.33;;;;;17.39;71.80;99891.06;5095441;27;55087;-58
2022/10/23 06:47:21;;;;;;;;;3.00;3.00;;;;;17.43;71.53;99904.97;5092447;27;45356;-59
2022/10/23 06:49:46;;;;;;;;;7.67;6.67;;;;;17.44;71.58;99891.56;5096309;27;45361;-58
2022/10/23 06:52:12;;;;;;;;;7.67;7.00;;;;;17.43;71.58;99897.00;5094936;27;47239;-59
2022/10/23 06:54:37;;;;;;;;;5.67;5.67;;;;;17.47;71.39;99889.66;5095680;27;56684;-59
2022/10/23 06:57:03;;;;;;;;;7.00;7.00;;;;;17.45;71.31;99884.44;5096504;27;45348;-59
2022/10/23 06:59:29;;;;;;;;;9.33;8.33;;;;;17.47;71.26;99887.00;5096366;27;45503;-59
2022/10/23 07:01:54;;;;;;;;;6.00;5.00;;;;;17.47;71.30;99885.19;5095135;27;45743;-59
2022/10/23 07:04:19;;;;;;;;;9.67;8.00;;;;;17.47;71.54;99871.03;5094582;27;48717;-59
2022/10/23 07:06:45;;;;;;;;;6.00;6.00;;;;;17.48;71.53;99872.72;5096359;27;45409;-59
2022/10/23 07:09:10;;;;;;;;;10.33;8.33;;;;;17.48;71.49;99878.03;5095430;27;45502;-59
2022/10/23 07:11:36;;;;;;;;;5.67;4.33;;;;;17.46;71.54;99872.81;5095608;27;46116;-59
2022/10/23 07:14:01;;;;;;;;;8.67;8.00;;;;;17.49;71.18;99864.66;5095369;27;45447;-59
2022/10/23 07:16:27;;;;;;;;;7.00;6.00;;;;;17.49;71.54;99871.75;5095183;27;45475;-59
2022/10/23 07:18:58;;;;;;;;;7.00;6.67;;;;;17.50;71.35;99876.97;5089486;27;45536;-59
2022/10/23 07:21:28;;;;;;;;;7.00;7.00;;;;;17.53;71.44;99875.88;5095678;27;45479;-59
2022/10/23 07:23:54;;;;;;;;;7.00;7.00;;;;;17.56;71.32;99880.97;5095497;27;45438;-60
2022/10/23 07:26:20;;;;;;;;;8.00;7.67;;;;;17.58;71.01;99887.88;5090764;27;45468;-60
2022/10/23 07:28:47;;;;;;;;;5.00;5.00;;;;;17.60;71.41;99877.13;5093432;27;45520;-60
2022/10/23 07:31:13;;;;;;;;;6.33;6.33;;;;;17.63;70.97;99882.22;5094021;27;45800;-59
2022/10/23 07:33:38;;;;;;;;;6.33;6.00;;;;;17.62;70.78;99884.03;5096095;27;45514;-59
2022/10/23 07:36:05;;;;;;;;;10.00;7.00;;;;;17.62;71.19;99881.38;5096103;27;45413;-59
2022/10/23 07:38:31;;;;;;;;;10.00;9.67;;;;;17.62;70.87;99881.38;5090450;27;45539;-60
2022/10/23 07:40:58;;;;;;;;;6.00;6.00;;;;;17.62;71.18;99875.16;5081003;27;46010;-60
2022/10/23 07:43:24;;;;;;;;;8.00;6.67;;;;;17.63;70.76;99872.41;5095201;27;45534;-59
2022/10/23 07:45:49;;;;;;;;;10.00;10.00;;;;;17.63;70.49;99861.78;5095694;27;45357;-59
2022/10/23 07:48:15;;;;;;;;;7.67;7.67;;;;;17.65;70.83;99869.63;5095732;27;45479;-60
2022/10/23 07:50:41;;;;;;;;;9.67;8.00;;;;;17.66;70.41;99866.00;5095507;27;45371;-59
2022/10/23 07:53:06;;;;;;;;;6.67;6.67;;;;;17.67;70.32;99865.03;5090718;27;45605;-59
2022/10/23 07:55:31;;;;;;;;;9.67;8.00;;;;;17.68;70.66;99877.38;5092329;27;45391;-60
2022/10/23 07:57:57;;;;;;;;;10.00;6.67;;;;;17.70;70.24;99872.78;5095633;27;46326;-59
2022/10/23 08:00:22;;;;;;;;;9.67;8.33;;;;;17.72;70.17;99872.66;5098640;27;51741;-59
2022/10/23 08:02:47;;;;;;;;;6.33;6.33;;;;;17.71;70.18;99874.50;5098220;27;45417;-59
2022/10/23 08:05:13;;;;;;;;;7.00;7.00;;;;;17.72;69.78;99868.19;5097279;27;45365;-59
2022/10/23 08:07:39;;;;;;;;;5.67;5.67;;;;;17.74;70.62;99868.09;5093025;27;45460;-59
2022/10/23 08:10:05;;;;;;;;;6.33;5.67;;;;;17.75;70.24;99865.28;5098748;27;46091;-59
2022/10/23 08:12:30;;;;;;;;;5.67;5.67;;;;;17.78;70.04;99859.72;5098691;27;45513;-59
2022/10/23 08:14:56;;;;;;;;;8.67;7.00;;;;;17.81;69.94;99861.34;5095496;27;45551;-59
2022/10/23 08:17:21;;;;;;;;;6.33;6.33;;;;;17.84;70.36;99856.66;5090925;27;45509;-60
2022/10/23 08:19:47;;;;;;;;;9.00;9.00;;;;;17.88;70.01;99850.09;5093887;27;46292;-60
2022/10/23 08:22:13;;;;;;;;;8.00;8.00;;;;;17.91;70.02;99872.13;5096356;27;45563;-60
2022/10/23 08:24:38;;;;;;;;;9.33;7.00;;;;;17.93;69.41;99865.72;5098517;27;45468;-60
2022/10/23 08:27:04;;;;;;;;;9.33;7.00;;;;;17.96;69.79;99856.66;5098697;27;45525;-59
2022/10/23 08:29:29;;;;;;;;;8.33;6.00;;;;;18.02;69.42;99842.88;5097914;27;45523;-60
2022/10/23 08:31:56;;;;;;;;;9.67;8.00;;;;;18.03;69.24;99839.25;5098208;27;45419;-60
2022/10/23 08:34:22;;;;;;;;;6.00;5.00;;;;;18.00;69.33;99840.34;5099334;27;45438;-60
2022/10/23 08:36:48;;;;;;;;;7.33;7.00;;;;;18.00;69.39;99847.44;5095017;27;45631;-65
2022/10/23 08:39:13;;;;;;;;;6.00;6.00;;;;;18.00;69.58;99845.66;5084623;27;46000;-65
2022/10/23 08:41:48;;;;;;;;;8.00;6.67;;;;;18.04;69.28;99847.09;5088107;27;45431;-65
2022/10/23 08:44:29;;;;;;;;;7.67;7.00;;;;;18.05;69.22;99850.59;5092945;27;45406;-68
2022/10/23 08:47:03;;;;;;;;;7.33;6.33;;;;;18.05;69.40;99850.59;5089671;27;45564;-60
2022/10/23 08:49:39;;;;;;;;;5.33;5.33;;;;;18.07;69.20;99846.00;5087929;27;45506;-60
2022/10/23 08:52:14;;;;;;;;;10.67;9.00;;;;;18.08;69.36;99850.34;5092069;27;45988;-61
2022/10/23 08:54:48;;;;;;;;;8.33;7.33;;;;;18.16;68.91;99841.78;5097435;27;45585;-63
2022/10/23 08:57:16;;;;;;;;;7.67;6.33;;;;;18.24;68.92;99855.31;5097769;27;45478;-60
2022/10/23 08:59:44;;;;;;;;;7.00;7.00;;;;;18.29;68.96;99856.66;5097525;27;45388;-60
2022/10/23 09:02:18;;;;;;;;;7.00;7.00;;;;;18.32;68.43;99839.59;5090732;27;45545;-60
2022/10/23 09:04:46;;;;;;;;;8.33;6.33;;;;;18.35;68.20;99839.38;5096105;27;45369;-60
2022/10/23 09:07:54;;;;;;;;;7.67;6.33;;;;;18.39;68.03;99838.13;5098084;27;45554;-60
2022/10/23 09:10:25;;;;;;;;;6.67;6.67;;;;;18.45;68.19;99847.44;5086028;27;45451;-60
2022/10/23 09:12:50;;;;;;;;;8.67;7.00;;;;;18.47;67.55;99849.00;5097790;27;45529;-60
2022/10/23 09:15:26;;;;;;;;;9.00;9.00;;;;;18.51;67.85;99846.94;5097976;27;45497;-60
2022/10/23 09:17:58;;;;;;;;;7.50;7.50;;;;;18.56;67.32;99836.78;5097952;27;45434;-60
2022/10/23 09:20:30;;;;;;;;;6.00;5.25;;;;;18.57;67.31;99830.50;5097603;27;46172;-60
2022/10/23 09:23:11;;;;;;;;;7.00;6.33;;;;;18.63;66.97;99831.81;5097676;27;45376;-60
2022/10/23 09:25:38;;;;;;;;;5.33;5.33;;;;;18.66;67.21;99826.22;5085558;27;45488;-60
2022/10/23 09:28:04;;;;;;;;;5.33;5.33;;;;;18.69;66.82;99834.81;5097458;27;45514;-60
2022/10/23 09:30:35;;;;;;;;;6.25;6.25;;;;;18.75;67.09;99830.81;5097309;27;47058;-59
2022/10/23 09:33:21;;;;;;;;;4.75;4.75;;;;;18.78;66.42;99833.25;5090838;27;45432;-59
2022/10/23 09:35:59;;;;;;;;;5.25;5.25;;;;;18.81;66.42;99833.00;5085032;27;45422;-60
2022/10/23 09:38:35;;;;;;;;;5.25;5.25;;;;;18.85;66.22;99823.78;5097346;27;45452;-60
2022/10/23 09:41:06;;;;;;;;;6.25;6.25;;;;;18.87;65.68;99821.00;5082703;27;46803;-60
2022/10/23 09:43:32;;;;;;;;;6.50;5.00;;;;;18.88;65.18;99822.69;5096138;27;45378;-60
2022/10/23 09:46:03;;;;;;;;;6.00;5.25;;;;;18.92;65.09;99822.31;5096249;27;45428;-60
2022/10/23 09:48:29;;;;;;;;;7.00;7.00;;;;;18.97;64.99;99821.94;5097332;27;45404;-59
2022/10/23 09:50:56;;;;;;;;;6.25;5.50;;;;;19.03;65.10;99813.41;5095361;27;47091;-59
2022/10/23 09:53:39;;;;;;;;;5.00;5.00;;;;;19.11;64.46;99813.63;5097310;27;45504;-59
2022/10/23 09:56:25;;;;;;;;;6.00;6.00;;;;;19.21;64.23;99819.03;5097423;27;45437;-60
2022/10/23 09:59:01;;;;;;;;;4.00;4.00;;;;;19.29;64.57;99813.91;5097290;27;45510;-60
2022/10/23 10:01:29;;;;;;;;;7.00;6.00;;;;;19.35;64.25;99816.06;5096969;27;45526;-59
2022/10/23 10:03:55;;;;;;;;;4.75;4.00;;;;;19.38;64.49;99809.63;5097100;27;45598;-61
2022/10/23 10:06:30;;;;;;;;;6.25;6.25;;;;;19.43;63.74;99802.91;5096981;27;45374;-59
2022/10/23 10:08:58;;;;;;;;;6.75;4.25;;;;;19.46;64.10;99799.16;5096894;27;45380;-58
2022/10/23 10:11:42;;;;;;;;;6.25;5.00;;;;;19.48;63.72;99802.53;5096900;27;45496;-59
2022/10/23 10:14:37;;;;;;;;;7.00;7.00;;;;;19.51;63.26;99809.44;5096906;27;45837;-59
2022/10/23 10:17:16;;;;;;;;;4.50;4.50;;;;;19.54;62.89;99798.50;5084206;27;45299;-59
2022/10/23 10:20:12;;;;;;;;;3.00;3.00;;;;;19.63;63.32;99800.34;5095847;27;45516;-61
2022/10/23 10:23:00;;;;;;;;;5.25;5.25;;;;;19.71;62.33;99799.72;5096719;27;46113;-59
2022/10/23 10:25:31;;;;;;;;;5.25;5.25;;;;;19.73;62.29;99800.44;5096734;27;45368;-59
2022/10/23 10:28:09;;;;;;;;;4.75;4.75;;;;;19.74;62.13;99797.63;5096022;27;45438;-59
2022/10/23 10:30:48;;;;;;;;;4.75;4.50;;;;;19.76;63.01;99798.34;5083413;27;45498;-61
2022/10/23 10:33:34;;;;;;;;;5.00;5.00;;;;;19.77;62.02;99797.41;5096244;27;45579;-61
2022/10/23 10:36:19;;;;;;;;;5.00;5.00;;;;;19.81;61.92;99788.13;5096199;27;45457;-59
2022/10/23 10:38:50;;;;;;;;;6.75;5.00;;;;;19.86;62.08;99791.25;5095551;27;45452;-61
2022/10/23 10:41:46;;;;;;;;;5.00;4.00;;;;;19.92;62.35;99797.03;5094382;27;45505;-59
2022/10/23 10:44:42;;;;;;;;;3.75;3.75;;;;;19.93;62.08;99796.88;5096072;27;45398;-59
2022/10/23 10:47:21;;;;;;;;;5.75;3.75;;;;;19.94;61.96;99782.56;5095081;27;45461;-60
2022/10/23 10:50:21;;;;;;;;;0.00;0.00;;;;;19.94;62.58;99779.91;5091638;27;45439;-59
2022/10/23 10:53:12;;;;;;;;;5.25;5.25;;;;;19.98;61.78;99769.78;5096252;27;45418;-59
2022/10/23 10:55:40;;;;;;;;;4.00;4.00;;;;;20.03;61.28;99765.75;5095918;27;45475;-59
2022/10/23 10:58:45;;;;;;;;;4.00;4.00;;;;;20.10;60.83;99771.41;5096205;27;45537;-59
2022/10/23 11:01:25;;;;;;;;;5.75;5.75;;;;;20.17;60.99;99782.38;5090038;27;45452;-59
2022/10/23 11:04:03;;;;;;;;;5.00;4.00;;;;;20.22;60.58;99767.63;5095184;27;45398;-60
2022/10/23 11:06:34;;;;;;;;;5.25;5.25;;;;;20.30;60.96;99759.78;5095902;27;46443;-59
2022/10/23 11:09:09;;;;;;;;;4.75;4.75;;;;;20.36;60.25;99757.53;5095863;27;45453;-60
2022/10/23 11:11:39;;;;;;;;;4.25;4.25;;;;;20.39;60.28;99757.25;5091106;27;45514;-60
2022/10/23 11:14:13;;;;;;;;;4.75;4.75;;;;;20.45;59.99;99754.91;5087000;27;45444;-60
2022/10/23 11:16:41;;;;;;;;;4.50;4.50;;;;;20.51;60.72;99761.50;5095821;27;45413;-60
2022/10/23 11:19:23;;;;;;;;;5.00;5.00;;;;;20.51;60.12;99740.97;5095959;27;45319;-60
2022/10/23 11:22:00;;;;;;;;;2.25;2.25;;;;;20.57;60.21;99736.09;5094889;27;45508;-60
2022/10/23 11:24:44;;;;;;;;;4.00;4.00;;;;;20.56;59.64;99724.56;5096184;27;45467;-60
2022/10/23 11:27:24;;;;;;;;;3.75;3.75;;;;;20.57;59.89;99731.59;5082749;27;45499;-60
2022/10/23 11:30:17;;;;;;;;;2.50;2.50;;;;;20.61;59.63;99718.81;5086943;27;45435;-60
2022/10/23 11:33:10;;;;;;;;;4.25;4.00;;;;;20.66;59.38;99712.06;5095455;27;45432;-61
2022/10/23 11:35:56;;;;;;;;;7.00;5.00;;;;;20.71;60.05;99724.97;5085604;27;45331;-63
2022/10/23 11:38:32;;;;;;;;;4.00;3.00;;;;;20.76;59.70;99724.56;5099104;27;45452;-63
2022/10/23 11:41:04;;;;;;;;;6.25;4.00;;;;;20.82;59.23;99738.22;5085504;27;45572;-63
2022/10/23 11:43:46;;;;;;;;;4.75;4.75;;;;;20.84;58.90;99725.53;5087711;27;45481;-64